Time;durP1;ratioP1;P1;durP2;ratioP2;P2;SDS_P1;SDS_P2;PMS_P1;PMS_P2;Temp;Humidity;BMP_temperature;BMP_pressure;BME280_temperature;BME280_humidity;BME280_pressure;Samples;Min_cycle;Max_cycle;Signal;HPM_P1;HPM_P2
2019/11/12 00:00:31;;;;;;;11.45;8.5;;;;;;;3.58;97.05273;94449.26;;;;
2019/11/12 00:01:32;;;;;;;11.45;8.5;;;;;;;3.58;97.05273;94449.26;;;;
2019/11/12 00:02:33;;;;;;;11.45;8.5;;;;;;;3.58;97.05273;94449.26;;;;
2019/11/12 00:03:35;;;;;;;11.35;8.25;;;;;;;3.48;97.25098;94443.45;;;;
2019/11/12 00:04:36;;;;;;;11.35;8.25;;;;;;;3.48;97.25098;94443.45;;;;
2019/11/12 00:05:37;;;;;;;11.35;8.25;;;;;;;3.48;97.25098;94443.45;;;;
2019/11/12 00:06:38;;;;;;;11.35;8.25;;;;;;;3.48;97.25098;94443.45;;;;
2019/11/12 00:07:39;;;;;;;11.35;8.25;;;;;;;3.48;97.25098;94443.45;;;;
2019/11/12 00:08:41;;;;;;;11.35;8.25;;;;;;;3.48;97.25098;94443.45;;;;
2019/11/12 00:09:42;;;;;;;11.35;8.25;;;;;;;3.48;97.25098;94443.45;;;;
2019/11/12 00:10:43;;;;;;;11.35;8.25;;;;;;;3.48;97.25098;94443.45;;;;
2019/11/12 00:11:44;;;;;;;11.35;8.25;;;;;;;3.48;97.25098;94443.45;;;;
2019/11/12 00:12:45;;;;;;;11.35;8.25;;;;;;;3.48;97.25098;94443.45;;;;
2019/11/12 00:13:46;;;;;;;11.35;8.25;;;;;;;3.48;97.25098;94443.45;;;;
2019/11/12 00:14:48;;;;;;;11.75;8.1;;;;;;;3.46;97.63379;94423.75;;;;
2019/11/12 00:15:49;;;;;;;11.75;8.1;;;;;;;3.46;97.63379;94423.75;;;;
2019/11/12 00:16:50;;;;;;;11.75;8.1;;;;;;;3.46;97.63379;94423.75;;;;
2019/11/12 00:17:51;;;;;;;11.75;8.1;;;;;;;3.46;97.63379;94423.75;;;;
2019/11/12 00:18:52;;;;;;;11.75;8.1;;;;;;;3.46;97.63379;94423.75;;;;
2019/11/12 00:19:53;;;;;;;11.75;8.1;;;;;;;3.46;97.63379;94423.75;;;;
2019/11/12 00:20:54;;;;;;;11.75;8.1;;;;;;;3.46;97.63379;94423.75;;;;
2019/11/12 00:21:55;;;;;;;11.75;8.1;;;;;;;3.46;97.63379;94423.75;;;;
2019/11/12 00:22:57;;;;;;;11.75;8.1;;;;;;;3.46;97.63379;94423.75;;;;
2019/11/12 00:23:58;;;;;;;11.75;8.1;;;;;;;3.46;97.63379;94423.75;;;;
2019/11/12 00:24:59;;;;;;;11.05;8.000001;;;;;;;3.37;97.85254;94441.55;;;;
2019/11/12 00:26:00;;;;;;;11.05;8.000001;;;;;;;3.37;97.85254;94441.55;;;;
2019/11/12 00:27:01;;;;;;;11.05;8.000001;;;;;;;3.37;97.85254;94441.55;;;;
2019/11/12 00:28:02;;;;;;;11.05;8.000001;;;;;;;3.37;97.85254;94441.55;;;;
2019/11/12 00:29:04;;;;;;;11.05;8.000001;;;;;;;3.37;97.85254;94441.55;;;;
2019/11/12 00:30:05;;;;;;;11.05;8.000001;;;;;;;3.37;97.85254;94441.55;;;;
2019/11/12 00:31:06;;;;;;;11.05;8.000001;;;;;;;3.37;97.85254;94441.55;;;;
2019/11/12 00:32:38;;;;;;;11.05;8.000001;;;;;;;3.37;97.85254;94441.55;;;;
2019/11/12 00:33:41;;;;;;;11.05;8.000001;;;;;;;3.37;97.85254;94441.55;;;;
2019/11/12 00:34:43;;;;;;;11.05;8.000001;;;;;;;3.37;97.85254;94441.55;;;;
2019/11/12 00:35:44;;;;;;;9.700001;7.749999;;;;;;;3.37;98.28027;94433.45;;;;
2019/11/12 00:36:45;;;;;;;9.700001;7.749999;;;;;;;3.37;98.28027;94433.45;;;;
2019/11/12 00:37:46;;;;;;;9.700001;7.749999;;;;;;;3.37;98.28027;94433.45;;;;
2019/11/12 00:38:47;;;;;;;9.700001;7.749999;;;;;;;3.37;98.28027;94433.45;;;;
2019/11/12 00:39:49;;;;;;;9.700001;7.749999;;;;;;;3.37;98.28027;94433.45;;;;
2019/11/12 00:40:50;;;;;;;9.700001;7.749999;;;;;;;3.37;98.28027;94433.45;;;;
2019/11/12 00:41:51;;;;;;;9.700001;7.749999;;;;;;;3.37;98.28027;94433.45;;;;
2019/11/12 00:42:52;;;;;;;9.700001;7.749999;;;;;;;3.37;98.28027;94433.45;;;;
2019/11/12 00:43:53;;;;;;;9.700001;7.749999;;;;;;;3.37;98.28027;94433.45;;;;
2019/11/12 00:44:54;;;;;;;9.700001;7.749999;;;;;;;3.37;98.28027;94433.45;;;;
2019/11/12 00:45:55;;;;;;;10.25;8;;;;;;;3.33;98.33301;94424.35;;;;
2019/11/12 00:46:57;;;;;;;10.25;8;;;;;;;3.33;98.33301;94424.35;;;;
2019/11/12 00:47:58;;;;;;;10.25;8;;;;;;;3.33;98.33301;94424.35;;;;
2019/11/12 00:48:59;;;;;;;10.25;8;;;;;;;3.33;98.33301;94424.35;;;;
2019/11/12 00:50:00;;;;;;;10.25;8;;;;;;;3.33;98.33301;94424.35;;;;
2019/11/12 00:51:01;;;;;;;10.25;8;;;;;;;3.33;98.33301;94424.35;;;;
2019/11/12 00:52:03;;;;;;;10.25;8;;;;;;;3.33;98.33301;94424.35;;;;
2019/11/12 00:53:04;;;;;;;10.25;8;;;;;;;3.33;98.33301;94424.35;;;;
2019/11/12 00:54:05;;;;;;;10.25;8;;;;;;;3.33;98.33301;94424.35;;;;
2019/11/12 00:55:06;;;;;;;10.25;8;;;;;;;3.33;98.33301;94424.35;;;;
2019/11/12 00:56:08;;;;;;;10.25;8;;;;;;;3.33;98.33301;94424.35;;;;
2019/11/12 00:57:10;;;;;;;9.650002;7.8;;;;;;;3.37;98.94922;94426.87;;;;
2019/11/12 00:58:11;;;;;;;9.650002;7.8;;;;;;;3.37;98.94922;94426.87;;;;
2019/11/12 00:59:12;;;;;;;9.650002;7.8;;;;;;;3.37;98.94922;94426.87;;;;
2019/11/12 01:00:13;;;;;;;9.650002;7.8;;;;;;;3.37;98.94922;94426.87;;;;
2019/11/12 01:01:16;;;;;;;9.650002;7.8;;;;;;;3.37;98.94922;94426.87;;;;
2019/11/12 01:02:17;;;;;;;9.650002;7.8;;;;;;;3.37;98.94922;94426.87;;;;
2019/11/12 01:03:18;;;;;;;9.650002;7.8;;;;;;;3.37;98.94922;94426.87;;;;
2019/11/12 01:04:19;;;;;;;9.650002;7.8;;;;;;;3.37;98.94922;94426.87;;;;
2019/11/12 01:05:20;;;;;;;9.650002;7.8;;;;;;;3.37;98.94922;94426.87;;;;
2019/11/12 01:06:21;;;;;;;9.650002;7.8;;;;;;;3.37;98.94922;94426.87;;;;
2019/11/12 01:07:23;;;;;;;11;8.15;;;;;;;3.33;99.02441;94440.23;;;;
2019/11/12 01:08:24;;;;;;;11;8.15;;;;;;;3.33;99.02441;94440.23;;;;
2019/11/12 01:09:25;;;;;;;11;8.15;;;;;;;3.33;99.02441;94440.23;;;;
2019/11/12 01:10:26;;;;;;;11;8.15;;;;;;;3.33;99.02441;94440.23;;;;
2019/11/12 01:11:27;;;;;;;11;8.15;;;;;;;3.33;99.02441;94440.23;;;;
2019/11/12 01:12:28;;;;;;;11;8.15;;;;;;;3.33;99.02441;94440.23;;;;
2019/11/12 01:13:29;;;;;;;11;8.15;;;;;;;3.33;99.02441;94440.23;;;;
2019/11/12 01:14:30;;;;;;;11;8.15;;;;;;;3.33;99.02441;94440.23;;;;
2019/11/12 01:15:32;;;;;;;11;8.15;;;;;;;3.33;99.02441;94440.23;;;;
2019/11/12 01:16:33;;;;;;;11;8.15;;;;;;;3.33;99.02441;94440.23;;;;
2019/11/12 01:17:34;;;;;;;11;8.15;;;;;;;3.33;99.02441;94440.23;;;;
2019/11/12 01:18:35;;;;;;;10.65;8.3;;;;;;;3.31;99.2998;94437.08;;;;
2019/11/12 01:19:36;;;;;;;10.65;8.3;;;;;;;3.31;99.2998;94437.08;;;;
2019/11/12 01:20:37;;;;;;;10.65;8.3;;;;;;;3.31;99.2998;94437.08;;;;
2019/11/12 01:21:38;;;;;;;10.65;8.3;;;;;;;3.31;99.2998;94437.08;;;;
2019/11/12 01:22:39;;;;;;;10.65;8.3;;;;;;;3.31;99.2998;94437.08;;;;
2019/11/12 01:23:41;;;;;;;10.65;8.3;;;;;;;3.31;99.2998;94437.08;;;;
2019/11/12 01:24:42;;;;;;;10.65;8.3;;;;;;;3.31;99.2998;94437.08;;;;
2019/11/12 01:25:43;;;;;;;10.65;8.3;;;;;;;3.31;99.2998;94437.08;;;;
2019/11/12 01:26:44;;;;;;;10.65;8.3;;;;;;;3.31;99.2998;94437.08;;;;
2019/11/12 01:27:45;;;;;;;10.65;8.3;;;;;;;3.31;99.2998;94437.08;;;;
2019/11/12 01:28:47;;;;;;;11.75;8.949999;;;;;;;3.37;99.48145;94440.12;;;;
2019/11/12 01:29:48;;;;;;;11.75;8.949999;;;;;;;3.37;99.48145;94440.12;;;;
2019/11/12 01:30:54;;;;;;;11.75;8.949999;;;;;;;3.37;99.48145;94440.12;;;;
2019/11/12 01:32:01;;;;;;;11.75;8.949999;;;;;;;3.37;99.48145;94440.12;;;;
2019/11/12 01:33:07;;;;;;;11.75;8.949999;;;;;;;3.37;99.48145;94440.12;;;;
2019/11/12 01:34:08;;;;;;;11.75;8.949999;;;;;;;3.37;99.48145;94440.12;;;;
2019/11/12 01:35:09;;;;;;;11.75;8.949999;;;;;;;3.37;99.48145;94440.12;;;;
2019/11/12 01:36:10;;;;;;;11.75;8.949999;;;;;;;3.37;99.48145;94440.12;;;;
2019/11/12 01:37:12;;;;;;;11.75;8.949999;;;;;;;3.37;99.48145;94440.12;;;;
2019/11/12 01:38:13;;;;;;;11.75;8.949999;;;;;;;3.37;99.48145;94440.12;;;;
2019/11/12 01:39:14;;;;;;;13.9;9.049999;;;;;;;3.36;99.41895;94425.16;;;;
2019/11/12 01:40:15;;;;;;;13.9;9.049999;;;;;;;3.36;99.41895;94425.16;;;;
2019/11/12 01:41:16;;;;;;;13.9;9.049999;;;;;;;3.36;99.41895;94425.16;;;;
2019/11/12 01:42:17;;;;;;;13.9;9.049999;;;;;;;3.36;99.41895;94425.16;;;;
2019/11/12 01:43:18;;;;;;;13.9;9.049999;;;;;;;3.36;99.41895;94425.16;;;;
2019/11/12 01:44:20;;;;;;;13.9;9.049999;;;;;;;3.36;99.41895;94425.16;;;;
2019/11/12 01:45:21;;;;;;;13.9;9.049999;;;;;;;3.36;99.41895;94425.16;;;;
2019/11/12 01:46:22;;;;;;;13.9;9.049999;;;;;;;3.36;99.41895;94425.16;;;;
2019/11/12 01:47:23;;;;;;;13.9;9.049999;;;;;;;3.36;99.41895;94425.16;;;;
2019/11/12 01:48:24;;;;;;;13.9;9.049999;;;;;;;3.36;99.41895;94425.16;;;;
2019/11/12 01:49:25;;;;;;;13.9;9.049999;;;;;;;3.36;99.41895;94425.16;;;;
2019/11/12 01:50:26;;;;;;;11.8;9.200001;;;;;;;3.43;99.9043;94432.61;;;;
2019/11/12 01:51:27;;;;;;;11.8;9.200001;;;;;;;3.43;99.9043;94432.61;;;;
2019/11/12 01:52:29;;;;;;;11.8;9.200001;;;;;;;3.43;99.9043;94432.61;;;;
2019/11/12 01:53:30;;;;;;;11.8;9.200001;;;;;;;3.43;99.9043;94432.61;;;;
2019/11/12 01:54:31;;;;;;;11.8;9.200001;;;;;;;3.43;99.9043;94432.61;;;;
2019/11/12 01:55:32;;;;;;;11.8;9.200001;;;;;;;3.43;99.9043;94432.61;;;;
2019/11/12 01:56:33;;;;;;;11.8;9.200001;;;;;;;3.43;99.9043;94432.61;;;;
2019/11/12 01:57:34;;;;;;;11.8;9.200001;;;;;;;3.43;99.9043;94432.61;;;;
2019/11/12 01:58:35;;;;;;;11.8;9.200001;;;;;;;3.43;99.9043;94432.61;;;;
2019/11/12 01:59:36;;;;;;;11.8;9.200001;;;;;;;3.43;99.9043;94432.61;;;;
2019/11/12 02:00:38;;;;;;;11.35;8.099999;;;;;;;3.45;100;94447.06;;;;
2019/11/12 02:01:39;;;;;;;11.35;8.099999;;;;;;;3.45;100;94447.06;;;;
2019/11/12 02:02:40;;;;;;;11.35;8.099999;;;;;;;3.45;100;94447.06;;;;
2019/11/12 02:03:41;;;;;;;11.35;8.099999;;;;;;;3.45;100;94447.06;;;;
2019/11/12 02:04:42;;;;;;;11.35;8.099999;;;;;;;3.45;100;94447.06;;;;
2019/11/12 02:05:43;;;;;;;11.35;8.099999;;;;;;;3.45;100;94447.06;;;;
2019/11/12 02:06:45;;;;;;;11.35;8.099999;;;;;;;3.45;100;94447.06;;;;
2019/11/12 02:07:46;;;;;;;11.35;8.099999;;;;;;;3.45;100;94447.06;;;;
2019/11/12 02:08:47;;;;;;;11.35;8.099999;;;;;;;3.45;100;94447.06;;;;
2019/11/12 02:09:48;;;;;;;11.35;8.099999;;;;;;;3.45;100;94447.06;;;;
2019/11/12 02:10:49;;;;;;;9.85;7.299999;;;;;;;3.55;100;94455;;;;
2019/11/12 02:11:50;;;;;;;9.85;7.299999;;;;;;;3.55;100;94455;;;;
2019/11/12 02:12:52;;;;;;;9.85;7.299999;;;;;;;3.55;100;94455;;;;
2019/11/12 02:13:53;;;;;;;9.85;7.299999;;;;;;;3.55;100;94455;;;;
2019/11/12 02:14:54;;;;;;;9.85;7.299999;;;;;;;3.55;100;94455;;;;
2019/11/12 02:15:55;;;;;;;9.85;7.299999;;;;;;;3.55;100;94455;;;;
2019/11/12 02:16:56;;;;;;;9.85;7.299999;;;;;;;3.55;100;94455;;;;
2019/11/12 02:17:57;;;;;;;9.85;7.299999;;;;;;;3.55;100;94455;;;;
2019/11/12 02:18:58;;;;;;;9.85;7.299999;;;;;;;3.55;100;94455;;;;
2019/11/12 02:20:00;;;;;;;9.85;7.299999;;;;;;;3.55;100;94455;;;;
2019/11/12 02:21:01;;;;;;;9.85;7.299999;;;;;;;3.55;100;94455;;;;
2019/11/12 02:22:02;;;;;;;7.949999;6.45;;;;;;;3.57;100;94468.86;;;;
2019/11/12 02:23:03;;;;;;;7.949999;6.45;;;;;;;3.57;100;94468.86;;;;
2019/11/12 02:24:04;;;;;;;7.949999;6.45;;;;;;;3.57;100;94468.86;;;;
2019/11/12 02:25:05;;;;;;;7.949999;6.45;;;;;;;3.57;100;94468.86;;;;
2019/11/12 02:26:07;;;;;;;7.949999;6.45;;;;;;;3.57;100;94468.86;;;;
2019/11/12 02:27:08;;;;;;;7.949999;6.45;;;;;;;3.57;100;94468.86;;;;
2019/11/12 02:28:10;;;;;;;7.949999;6.45;;;;;;;3.57;100;94468.86;;;;
2019/11/12 02:29:11;;;;;;;7.949999;6.45;;;;;;;3.57;100;94468.86;;;;
2019/11/12 02:30:12;;;;;;;7.949999;6.45;;;;;;;3.57;100;94468.86;;;;
2019/11/12 02:31:13;;;;;;;7.949999;6.45;;;;;;;3.57;100;94468.86;;;;
2019/11/12 02:32:15;;;;;;;8.750001;6.5;;;;;;;3.66;100;94457.83;;;;
2019/11/12 02:33:16;;;;;;;8.750001;6.5;;;;;;;3.66;100;94457.83;;;;
2019/11/12 02:34:17;;;;;;;8.750001;6.5;;;;;;;3.66;100;94457.83;;;;
2019/11/12 02:35:18;;;;;;;8.750001;6.5;;;;;;;3.66;100;94457.83;;;;
2019/11/12 02:36:19;;;;;;;8.750001;6.5;;;;;;;3.66;100;94457.83;;;;
2019/11/12 02:37:21;;;;;;;8.750001;6.5;;;;;;;3.66;100;94457.83;;;;
2019/11/12 02:38:22;;;;;;;8.750001;6.5;;;;;;;3.66;100;94457.83;;;;
2019/11/12 02:39:23;;;;;;;8.750001;6.5;;;;;;;3.66;100;94457.83;;;;
2019/11/12 02:40:24;;;;;;;8.750001;6.5;;;;;;;3.66;100;94457.83;;;;
2019/11/12 02:41:25;;;;;;;8.750001;6.5;;;;;;;3.66;100;94457.83;;;;
2019/11/12 02:42:27;;;;;;;8.750001;6.5;;;;;;;3.66;100;94457.83;;;;
2019/11/12 02:43:28;;;;;;;7.900001;6.400001;;;;;;;3.64;100;94461.64;;;;
2019/11/12 02:44:29;;;;;;;7.900001;6.400001;;;;;;;3.64;100;94461.64;;;;
2019/11/12 02:45:30;;;;;;;7.900001;6.400001;;;;;;;3.64;100;94461.64;;;;
2019/11/12 02:46:31;;;;;;;7.900001;6.400001;;;;;;;3.64;100;94461.64;;;;
2019/11/12 02:47:32;;;;;;;7.900001;6.400001;;;;;;;3.64;100;94461.64;;;;
2019/11/12 02:48:34;;;;;;;7.900001;6.400001;;;;;;;3.64;100;94461.64;;;;
2019/11/12 02:49:35;;;;;;;7.900001;6.400001;;;;;;;3.64;100;94461.64;;;;
2019/11/12 02:50:36;;;;;;;7.900001;6.400001;;;;;;;3.64;100;94461.64;;;;
2019/11/12 02:51:37;;;;;;;7.900001;6.400001;;;;;;;3.64;100;94461.64;;;;
2019/11/12 02:52:42;;;;;;;7.900001;6.400001;;;;;;;3.64;100;94461.64;;;;
2019/11/12 02:53:43;;;;;;;8.45;6.799999;;;;;;;3.62;100;94450.35;;;;
2019/11/12 02:54:44;;;;;;;8.45;6.799999;;;;;;;3.62;100;94450.35;;;;
2019/11/12 02:55:53;;;;;;;8.45;6.799999;;;;;;;3.62;100;94450.35;;;;
2019/11/12 02:56:57;;;;;;;8.45;6.799999;;;;;;;3.62;100;94450.35;;;;
2019/11/12 02:57:58;;;;;;;8.45;6.799999;;;;;;;3.62;100;94450.35;;;;
2019/11/12 02:58:59;;;;;;;8.45;6.799999;;;;;;;3.62;100;94450.35;;;;
2019/11/12 03:00:00;;;;;;;8.45;6.799999;;;;;;;3.62;100;94450.35;;;;
2019/11/12 03:01:03;;;;;;;8.45;6.799999;;;;;;;3.62;100;94450.35;;;;
2019/11/12 03:02:04;;;;;;;8.45;6.799999;;;;;;;3.62;100;94450.35;;;;
2019/11/12 03:03:05;;;;;;;8.45;6.799999;;;;;;;3.62;100;94450.35;;;;
2019/11/12 03:04:06;;;;;;;9.349999;7.1;;;;;;;3.61;100;94459.91;;;;
2019/11/12 03:05:08;;;;;;;9.349999;7.1;;;;;;;3.61;100;94459.91;;;;
2019/11/12 03:06:09;;;;;;;9.349999;7.1;;;;;;;3.61;100;94459.91;;;;
2019/11/12 03:07:10;;;;;;;9.349999;7.1;;;;;;;3.61;100;94459.91;;;;
2019/11/12 03:08:11;;;;;;;9.349999;7.1;;;;;;;3.61;100;94459.91;;;;
2019/11/12 03:09:13;;;;;;;9.349999;7.1;;;;;;;3.61;100;94459.91;;;;
2019/11/12 03:10:14;;;;;;;9.349999;7.1;;;;;;;3.61;100;94459.91;;;;
2019/11/12 03:11:15;;;;;;;9.349999;7.1;;;;;;;3.61;100;94459.91;;;;
2019/11/12 03:12:16;;;;;;;9.349999;7.1;;;;;;;3.61;100;94459.91;;;;
2019/11/12 03:13:17;;;;;;;9.349999;7.1;;;;;;;3.61;100;94459.91;;;;
2019/11/12 03:14:19;;;;;;;9.349999;7.1;;;;;;;3.61;100;94459.91;;;;
2019/11/12 03:15:20;;;;;;;8.1;7.1;;;;;;;3.66;100;94472.51;;;;
2019/11/12 03:16:21;;;;;;;8.1;7.1;;;;;;;3.66;100;94472.51;;;;
2019/11/12 03:17:22;;;;;;;8.1;7.1;;;;;;;3.66;100;94472.51;;;;
2019/11/12 03:18:23;;;;;;;8.1;7.1;;;;;;;3.66;100;94472.51;;;;
2019/11/12 03:19:24;;;;;;;8.1;7.1;;;;;;;3.66;100;94472.51;;;;
2019/11/12 03:20:26;;;;;;;8.1;7.1;;;;;;;3.66;100;94472.51;;;;
2019/11/12 03:21:27;;;;;;;8.1;7.1;;;;;;;3.66;100;94472.51;;;;
2019/11/12 03:22:28;;;;;;;8.1;7.1;;;;;;;3.66;100;94472.51;;;;
2019/11/12 03:23:29;;;;;;;8.1;7.1;;;;;;;3.66;100;94472.51;;;;
2019/11/12 03:24:30;;;;;;;8.1;7.1;;;;;;;3.66;100;94472.51;;;;
2019/11/12 03:25:31;;;;;;;9.000001;7.2;;;;;;;3.65;100;94473.14;;;;
2019/11/12 03:26:33;;;;;;;9.000001;7.2;;;;;;;3.65;100;94473.14;;;;
2019/11/12 03:27:34;;;;;;;9.000001;7.2;;;;;;;3.65;100;94473.14;;;;
2019/11/12 03:28:35;;;;;;;9.000001;7.2;;;;;;;3.65;100;94473.14;;;;
2019/11/12 03:29:36;;;;;;;9.000001;7.2;;;;;;;3.65;100;94473.14;;;;
2019/11/12 03:30:37;;;;;;;9.000001;7.2;;;;;;;3.65;100;94473.14;;;;
2019/11/12 03:31:44;;;;;;;9.000001;7.2;;;;;;;3.65;100;94473.14;;;;
2019/11/12 03:32:45;;;;;;;9.000001;7.2;;;;;;;3.65;100;94473.14;;;;
2019/11/12 03:33:46;;;;;;;9.000001;7.2;;;;;;;3.65;100;94473.14;;;;
2019/11/12 03:34:47;;;;;;;9.000001;7.2;;;;;;;3.65;100;94473.14;;;;
2019/11/12 03:35:48;;;;;;;8.799999;7.4;;;;;;;3.73;100;94477.8;;;;
2019/11/12 03:36:49;;;;;;;8.799999;7.4;;;;;;;3.73;100;94477.8;;;;
2019/11/12 03:37:50;;;;;;;8.799999;7.4;;;;;;;3.73;100;94477.8;;;;
2019/11/12 03:38:51;;;;;;;8.799999;7.4;;;;;;;3.73;100;94477.8;;;;
2019/11/12 03:39:52;;;;;;;8.799999;7.4;;;;;;;3.73;100;94477.8;;;;
2019/11/12 03:40:54;;;;;;;8.799999;7.4;;;;;;;3.73;100;94477.8;;;;
2019/11/12 03:41:55;;;;;;;8.799999;7.4;;;;;;;3.73;100;94477.8;;;;
2019/11/12 03:43:06;;;;;;;8.799999;7.4;;;;;;;3.73;100;94477.8;;;;
2019/11/12 03:44:07;;;;;;;8.799999;7.4;;;;;;;3.73;100;94477.8;;;;
2019/11/12 03:45:09;;;;;;;8.799999;7.4;;;;;;;3.73;100;94477.8;;;;
2019/11/12 03:46:10;;;;;;;8.799999;7.4;;;;;;;3.73;100;94477.8;;;;
2019/11/12 03:47:21;;;;;;;10.15;7.3;;;;;;;3.72;100;94492.19;;;;
2019/11/12 03:48:37;;;;;;;10.15;7.3;;;;;;;3.72;100;94492.19;;;;
2019/11/12 03:49:42;;;;;;;10.15;7.3;;;;;;;3.72;100;94492.19;;;;
2019/11/12 03:50:47;;;;;;;10.15;7.3;;;;;;;3.72;100;94492.19;;;;
2019/11/12 03:51:56;;;;;;;10.15;7.3;;;;;;;3.72;100;94492.19;;;;
2019/11/12 03:53:10;;;;;;;10.15;7.3;;;;;;;3.72;100;94492.19;;;;
2019/11/12 03:54:35;;;;;;;10.15;7.3;;;;;;;3.72;100;94492.19;;;;
2019/11/12 03:55:44;;;;;;;10.15;7.3;;;;;;;3.72;100;94492.19;;;;
2019/11/12 03:56:48;;;;;;;10.15;7.3;;;;;;;3.72;100;94492.19;;;;
2019/11/12 03:57:54;;;;;;;9.65;6.950001;;;;;;;3.73;100;94490.23;;;;
2019/11/12 03:58:55;;;;;;;9.65;6.950001;;;;;;;3.73;100;94490.23;;;;
2019/11/12 03:59:56;;;;;;;9.65;6.950001;;;;;;;3.73;100;94490.23;;;;
2019/11/12 04:00:58;;;;;;;9.65;6.950001;;;;;;;3.73;100;94490.23;;;;
2019/11/12 04:01:59;;;;;;;9.65;6.950001;;;;;;;3.73;100;94490.23;;;;
2019/11/12 04:03:00;;;;;;;9.65;6.950001;;;;;;;3.73;100;94490.23;;;;
2019/11/12 04:04:01;;;;;;;9.65;6.950001;;;;;;;3.73;100;94490.23;;;;
2019/11/12 04:05:03;;;;;;;9.65;6.950001;;;;;;;3.73;100;94490.23;;;;
2019/11/12 04:06:04;;;;;;;9.65;6.950001;;;;;;;3.73;100;94490.23;;;;
2019/11/12 04:07:05;;;;;;;9.65;6.950001;;;;;;;3.73;100;94490.23;;;;
2019/11/12 04:08:06;;;;;;;8.600001;6.95;;;;;;;3.78;100;94487.31;;;;
2019/11/12 04:09:08;;;;;;;8.600001;6.95;;;;;;;3.78;100;94487.31;;;;
2019/11/12 04:10:09;;;;;;;8.600001;6.95;;;;;;;3.78;100;94487.31;;;;
2019/11/12 04:11:10;;;;;;;8.600001;6.95;;;;;;;3.78;100;94487.31;;;;
2019/11/12 04:12:11;;;;;;;8.600001;6.95;;;;;;;3.78;100;94487.31;;;;
2019/11/12 04:13:12;;;;;;;8.600001;6.95;;;;;;;3.78;100;94487.31;;;;
2019/11/12 04:14:14;;;;;;;8.600001;6.95;;;;;;;3.78;100;94487.31;;;;
2019/11/12 04:15:15;;;;;;;8.600001;6.95;;;;;;;3.78;100;94487.31;;;;
2019/11/12 04:16:16;;;;;;;8.600001;6.95;;;;;;;3.78;100;94487.31;;;;
2019/11/12 04:17:18;;;;;;;8.600001;6.95;;;;;;;3.78;100;94487.31;;;;
2019/11/12 04:18:20;;;;;;;9.1;6.55;;;;;;;3.87;100;94474.84;;;;
2019/11/12 04:19:21;;;;;;;9.1;6.55;;;;;;;3.87;100;94474.84;;;;
2019/11/12 04:20:22;;;;;;;9.1;6.55;;;;;;;3.87;100;94474.84;;;;
2019/11/12 04:21:24;;;;;;;9.1;6.55;;;;;;;3.87;100;94474.84;;;;
2019/11/12 04:22:28;;;;;;;9.1;6.55;;;;;;;3.87;100;94474.84;;;;
2019/11/12 04:23:29;;;;;;;9.1;6.55;;;;;;;3.87;100;94474.84;;;;
2019/11/12 04:24:31;;;;;;;9.1;6.55;;;;;;;3.87;100;94474.84;;;;
2019/11/12 04:25:36;;;;;;;9.1;6.55;;;;;;;3.87;100;94474.84;;;;
2019/11/12 04:26:37;;;;;;;9.1;6.55;;;;;;;3.87;100;94474.84;;;;
2019/11/12 04:27:39;;;;;;;9.1;6.55;;;;;;;3.87;100;94474.84;;;;
2019/11/12 04:28:41;;;;;;;9.1;6.55;;;;;;;3.87;100;94474.84;;;;
2019/11/12 04:29:42;;;;;;;7.199999;6.1;;;;;;;3.85;100;94464.89;;;;
2019/11/12 04:30:45;;;;;;;7.199999;6.1;;;;;;;3.85;100;94464.89;;;;
2019/11/12 04:31:46;;;;;;;7.199999;6.1;;;;;;;3.85;100;94464.89;;;;
2019/11/12 04:32:47;;;;;;;7.199999;6.1;;;;;;;3.85;100;94464.89;;;;
2019/11/12 04:33:48;;;;;;;7.199999;6.1;;;;;;;3.85;100;94464.89;;;;
2019/11/12 04:34:49;;;;;;;7.199999;6.1;;;;;;;3.85;100;94464.89;;;;
2019/11/12 04:35:51;;;;;;;7.199999;6.1;;;;;;;3.85;100;94464.89;;;;
2019/11/12 04:36:52;;;;;;;7.199999;6.1;;;;;;;3.85;100;94464.89;;;;
2019/11/12 04:37:53;;;;;;;7.199999;6.1;;;;;;;3.85;100;94464.89;;;;
2019/11/12 04:38:54;;;;;;;7.199999;6.1;;;;;;;3.85;100;94464.89;;;;
2019/11/12 04:39:55;;;;;;;9.25;6.349999;;;;;;;3.88;100;94437.87;;;;
2019/11/12 04:40:56;;;;;;;9.25;6.349999;;;;;;;3.88;100;94437.87;;;;
2019/11/12 04:41:57;;;;;;;9.25;6.349999;;;;;;;3.88;100;94437.87;;;;
2019/11/12 04:42:58;;;;;;;9.25;6.349999;;;;;;;3.88;100;94437.87;;;;
2019/11/12 04:44:00;;;;;;;9.25;6.349999;;;;;;;3.88;100;94437.87;;;;
2019/11/12 04:45:01;;;;;;;9.25;6.349999;;;;;;;3.88;100;94437.87;;;;
2019/11/12 04:46:02;;;;;;;9.25;6.349999;;;;;;;3.88;100;94437.87;;;;
2019/11/12 04:47:04;;;;;;;9.25;6.349999;;;;;;;3.88;100;94437.87;;;;
2019/11/12 04:48:05;;;;;;;9.25;6.349999;;;;;;;3.88;100;94437.87;;;;
2019/11/12 04:49:06;;;;;;;9.25;6.349999;;;;;;;3.88;100;94437.87;;;;
2019/11/12 04:50:07;;;;;;;8.599999;6.349999;;;;;;;3.84;100;94443.24;;;;
2019/11/12 04:51:08;;;;;;;8.599999;6.349999;;;;;;;3.84;100;94443.24;;;;
2019/11/12 04:52:10;;;;;;;8.599999;6.349999;;;;;;;3.84;100;94443.24;;;;
2019/11/12 04:53:11;;;;;;;8.599999;6.349999;;;;;;;3.84;100;94443.24;;;;
2019/11/12 04:54:12;;;;;;;8.599999;6.349999;;;;;;;3.84;100;94443.24;;;;
2019/11/12 04:55:13;;;;;;;8.599999;6.349999;;;;;;;3.84;100;94443.24;;;;
2019/11/12 04:56:14;;;;;;;8.599999;6.349999;;;;;;;3.84;100;94443.24;;;;
2019/11/12 04:57:15;;;;;;;8.599999;6.349999;;;;;;;3.84;100;94443.24;;;;
2019/11/12 04:58:16;;;;;;;8.599999;6.349999;;;;;;;3.84;100;94443.24;;;;
2019/11/12 04:59:17;;;;;;;8.599999;6.349999;;;;;;;3.84;100;94443.24;;;;
2019/11/12 05:00:26;;;;;;;8.599999;6.349999;;;;;;;3.84;100;94443.24;;;;
2019/11/12 05:01:34;;;;;;;7.9;5.950001;;;;;;;3.87;100;94466.96;;;;
2019/11/12 05:02:36;;;;;;;7.9;5.950001;;;;;;;3.87;100;94466.96;;;;
2019/11/12 05:03:37;;;;;;;7.9;5.950001;;;;;;;3.87;100;94466.96;;;;
2019/11/12 05:04:40;;;;;;;7.9;5.950001;;;;;;;3.87;100;94466.96;;;;
2019/11/12 05:05:41;;;;;;;7.9;5.950001;;;;;;;3.87;100;94466.96;;;;
2019/11/12 05:06:43;;;;;;;7.9;5.950001;;;;;;;3.87;100;94466.96;;;;
2019/11/12 05:07:44;;;;;;;7.9;5.950001;;;;;;;3.87;100;94466.96;;;;
2019/11/12 05:08:46;;;;;;;7.9;5.950001;;;;;;;3.87;100;94466.96;;;;
2019/11/12 05:09:48;;;;;;;7.9;5.950001;;;;;;;3.87;100;94466.96;;;;
2019/11/12 05:10:49;;;;;;;7.9;5.950001;;;;;;;3.87;100;94466.96;;;;
2019/11/12 05:11:52;;;;;;;8.699998;7.05;;;;;;;3.86;100;94488.4;;;;
2019/11/12 05:12:53;;;;;;;8.699998;7.05;;;;;;;3.86;100;94488.4;;;;
2019/11/12 05:13:54;;;;;;;8.699998;7.05;;;;;;;3.86;100;94488.4;;;;
2019/11/12 05:14:55;;;;;;;8.699998;7.05;;;;;;;3.86;100;94488.4;;;;
2019/11/12 05:15:56;;;;;;;8.699998;7.05;;;;;;;3.86;100;94488.4;;;;
2019/11/12 05:16:57;;;;;;;8.699998;7.05;;;;;;;3.86;100;94488.4;;;;
2019/11/12 05:17:58;;;;;;;8.699998;7.05;;;;;;;3.86;100;94488.4;;;;
2019/11/12 05:19:00;;;;;;;8.699998;7.05;;;;;;;3.86;100;94488.4;;;;
2019/11/12 05:20:01;;;;;;;8.699998;7.05;;;;;;;3.86;100;94488.4;;;;
2019/11/12 05:21:02;;;;;;;8.699998;7.05;;;;;;;3.86;100;94488.4;;;;
2019/11/12 05:22:04;;;;;;;7.25;6.250001;;;;;;;3.92;100;94512.52;;;;
2019/11/12 05:23:05;;;;;;;7.25;6.250001;;;;;;;3.92;100;94512.52;;;;
2019/11/12 05:24:07;;;;;;;7.25;6.250001;;;;;;;3.92;100;94512.52;;;;
2019/11/12 05:25:08;;;;;;;7.25;6.250001;;;;;;;3.92;100;94512.52;;;;
2019/11/12 05:26:09;;;;;;;7.25;6.250001;;;;;;;3.92;100;94512.52;;;;
2019/11/12 05:27:11;;;;;;;7.25;6.250001;;;;;;;3.92;100;94512.52;;;;
2019/11/12 05:28:12;;;;;;;7.25;6.250001;;;;;;;3.92;100;94512.52;;;;
2019/11/12 05:29:13;;;;;;;7.25;6.250001;;;;;;;3.92;100;94512.52;;;;
2019/11/12 05:30:14;;;;;;;7.25;6.250001;;;;;;;3.92;100;94512.52;;;;
2019/11/12 05:31:16;;;;;;;7.25;6.250001;;;;;;;3.92;100;94512.52;;;;
2019/11/12 05:32:17;;;;;;;7.25;6.250001;;;;;;;3.92;100;94512.52;;;;
2019/11/12 05:33:19;;;;;;;7.200001;5.799999;;;;;;;3.86;100;94496.01;;;;
2019/11/12 05:34:24;;;;;;;7.200001;5.799999;;;;;;;3.86;100;94496.01;;;;
2019/11/12 05:35:25;;;;;;;7.200001;5.799999;;;;;;;3.86;100;94496.01;;;;
2019/11/12 05:36:27;;;;;;;7.200001;5.799999;;;;;;;3.86;100;94496.01;;;;
2019/11/12 05:37:28;;;;;;;7.200001;5.799999;;;;;;;3.86;100;94496.01;;;;
2019/11/12 05:38:29;;;;;;;7.200001;5.799999;;;;;;;3.86;100;94496.01;;;;
2019/11/12 05:39:33;;;;;;;7.200001;5.799999;;;;;;;3.86;100;94496.01;;;;
2019/11/12 05:40:34;;;;;;;7.200001;5.799999;;;;;;;3.86;100;94496.01;;;;
2019/11/12 05:41:35;;;;;;;7.200001;5.799999;;;;;;;3.86;100;94496.01;;;;
2019/11/12 05:42:36;;;;;;;7.200001;5.799999;;;;;;;3.86;100;94496.01;;;;
2019/11/12 05:43:38;;;;;;;7.199999;5.749999;;;;;;;3.85;100;94502.81;;;;
2019/11/12 05:44:39;;;;;;;7.199999;5.749999;;;;;;;3.85;100;94502.81;;;;
2019/11/12 05:45:40;;;;;;;7.199999;5.749999;;;;;;;3.85;100;94502.81;;;;
2019/11/12 05:46:41;;;;;;;7.199999;5.749999;;;;;;;3.85;100;94502.81;;;;
2019/11/12 05:47:42;;;;;;;7.199999;5.749999;;;;;;;3.85;100;94502.81;;;;
2019/11/12 05:48:43;;;;;;;7.199999;5.749999;;;;;;;3.85;100;94502.81;;;;
2019/11/12 05:49:44;;;;;;;7.199999;5.749999;;;;;;;3.85;100;94502.81;;;;
2019/11/12 05:50:45;;;;;;;7.199999;5.749999;;;;;;;3.85;100;94502.81;;;;
2019/11/12 05:51:46;;;;;;;7.199999;5.749999;;;;;;;3.85;100;94502.81;;;;
2019/11/12 05:52:48;;;;;;;7.199999;5.749999;;;;;;;3.85;100;94502.81;;;;
2019/11/12 05:53:49;;;;;;;9.299999;6.000001;;;;;;;3.79;100;94485.38;;;;
2019/11/12 05:54:51;;;;;;;9.299999;6.000001;;;;;;;3.79;100;94485.38;;;;